sensor_id;sensor_type;location;lat;lon;timestamp;P1;durP1;ratioP1;P2;durP2;ratioP2
9413;SDS011;4746;35.664;139.738;2023-05-10T00:00:26;10.80;;;9.80;;
9413;SDS011;4746;35.664;139.738;2023-05-10T00:02:54;11.20;;;10.30;;
9413;SDS011;4746;35.664;139.738;2023-05-10T00:05:23;10.33;;;9.43;;
9413;SDS011;4746;35.664;139.738;2023-05-10T00:07:50;10.47;;;9.20;;
9413;SDS011;4746;35.664;139.738;2023-05-10T00:10:18;10.83;;;9.83;;
9413;SDS011;4746;35.664;139.738;2023-05-10T00:12:45;10.77;;;9.70;;
9413;SDS011;4746;35.664;139.738;2023-05-10T00:15:13;12.07;;;8.80;;
9413;SDS011;4746;35.664;139.738;2023-05-10T00:17:41;10.17;;;9.33;;
9413;SDS011;4746;35.664;139.738;2023-05-10T00:20:08;9.83;;;8.87;;
9413;SDS011;4746;35.664;139.738;2023-05-10T00:22:36;10.63;;;9.70;;
9413;SDS011;4746;35.664;139.738;2023-05-10T00:25:04;10.33;;;9.43;;
9413;SDS011;4746;35.664;139.738;2023-05-10T00:27:33;11.13;;;10.17;;
9413;SDS011;4746;35.664;139.738;2023-05-10T00:30:00;10.50;;;9.57;;
9413;SDS011;4746;35.664;139.738;2023-05-10T00:32:28;11.60;;;10.50;;
9413;SDS011;4746;35.664;139.738;2023-05-10T00:34:55;11.97;;;10.77;;
9413;SDS011;4746;35.664;139.738;2023-05-10T00:37:23;11.93;;;10.73;;
9413;SDS011;4746;35.664;139.738;2023-05-10T00:39:51;11.73;;;10.67;;
9413;SDS011;4746;35.664;139.738;2023-05-10T00:42:18;11.63;;;10.53;;
9413;SDS011;4746;35.664;139.738;2023-05-10T00:44:46;12.20;;;11.00;;
9413;SDS011;4746;35.664;139.738;2023-05-10T00:47:13;11.33;;;10.23;;
9413;SDS011;4746;35.664;139.738;2023-05-10T00:49:42;11.37;;;10.10;;
9413;SDS011;4746;35.664;139.738;2023-05-10T00:52:10;10.87;;;9.80;;
9413;SDS011;4746;35.664;139.738;2023-05-10T00:54:38;12.60;;;10.17;;
9413;SDS011;4746;35.664;139.738;2023-05-10T00:57:06;11.07;;;9.87;;
9413;SDS011;4746;35.664;139.738;2023-05-10T00:59:34;9.37;;;8.50;;
9413;SDS011;4746;35.664;139.738;2023-05-10T01:02:01;10.43;;;9.43;;
9413;SDS011;4746;35.664;139.738;2023-05-10T01:04:29;10.43;;;9.37;;
9413;SDS011;4746;35.664;139.738;2023-05-10T01:06:57;10.27;;;9.30;;
9413;SDS011;4746;35.664;139.738;2023-05-10T01:09:24;9.83;;;8.37;;
9413;SDS011;4746;35.664;139.738;2023-05-10T01:11:53;9.80;;;8.97;;
9413;SDS011;4746;35.664;139.738;2023-05-10T01:14:22;9.83;;;8.87;;
9413;SDS011;4746;35.664;139.738;2023-05-10T01:16:52;9.67;;;8.77;;
9413;SDS011;4746;35.664;139.738;2023-05-10T01:19:24;9.63;;;8.67;;
9413;SDS011;4746;35.664;139.738;2023-05-10T01:22:11;10.17;;;9.30;;
9413;SDS011;4746;35.664;139.738;2023-05-10T01:31:48;9.90;;;9.00;;
9413;SDS011;4746;35.664;139.738;2023-05-10T01:34:25;10.00;;;9.13;;
9413;SDS011;4746;35.664;139.738;2023-05-10T01:37:15;10.73;;;9.43;;
9413;SDS011;4746;35.664;139.738;2023-05-10T01:42:29;10.13;;;9.10;;
9413;SDS011;4746;35.664;139.738;2023-05-10T01:45:29;9.50;;;8.50;;
9413;SDS011;4746;35.664;139.738;2023-05-10T01:48:20;9.53;;;8.60;;
9413;SDS011;4746;35.664;139.738;2023-05-10T01:50:49;12.57;;;8.67;;
9413;SDS011;4746;35.664;139.738;2023-05-10T01:53:19;8.90;;;8.03;;
9413;SDS011;4746;35.664;139.738;2023-05-10T01:55:49;9.13;;;8.33;;
9413;SDS011;4746;35.664;139.738;2023-05-10T01:58:25;10.23;;;9.05;;
9413;SDS011;4746;35.664;139.738;2023-05-10T02:00:59;9.80;;;8.90;;
9413;SDS011;4746;35.664;139.738;2023-05-10T02:03:31;11.15;;;8.77;;
9413;SDS011;4746;35.664;139.738;2023-05-10T02:06:03;9.63;;;8.70;;
9413;SDS011;4746;35.664;139.738;2023-05-10T02:08:33;9.40;;;8.50;;
9413;SDS011;4746;35.664;139.738;2023-05-10T02:11:04;8.93;;;8.10;;
9413;SDS011;4746;35.664;139.738;2023-05-10T02:13:34;9.55;;;8.68;;
9413;SDS011;4746;35.664;139.738;2023-05-10T02:16:05;9.68;;;8.50;;
9413;SDS011;4746;35.664;139.738;2023-05-10T02:18:34;9.60;;;8.40;;
9413;SDS011;4746;35.664;139.738;2023-05-10T02:21:04;9.25;;;8.40;;
9413;SDS011;4746;35.664;139.738;2023-05-10T02:23:32;8.30;;;7.60;;
9413;SDS011;4746;35.664;139.738;2023-05-10T02:26:03;9.35;;;8.43;;
9413;SDS011;4746;35.664;139.738;2023-05-10T02:28:33;9.60;;;8.70;;
9413;SDS011;4746;35.664;139.738;2023-05-10T02:31:03;9.80;;;8.98;;
9413;SDS011;4746;35.664;139.738;2023-05-10T02:33:33;10.93;;;10.02;;
9413;SDS011;4746;35.664;139.738;2023-05-10T02:36:03;13.55;;;10.98;;
9413;SDS011;4746;35.664;139.738;2023-05-10T02:38:31;13.65;;;11.32;;
9413;SDS011;4746;35.664;139.738;2023-05-10T02:41:02;12.90;;;10.65;;
9413;SDS011;4746;35.664;139.738;2023-05-10T02:43:33;11.30;;;10.20;;
9413;SDS011;4746;35.664;139.738;2023-05-10T02:46:05;11.43;;;10.23;;
9413;SDS011;4746;35.664;139.738;2023-05-10T02:48:33;12.82;;;11.35;;
9413;SDS011;4746;35.664;139.738;2023-05-10T02:51:04;13.57;;;11.15;;
9413;SDS011;4746;35.664;139.738;2023-05-10T02:53:34;13.07;;;10.32;;
9413;SDS011;4746;35.664;139.738;2023-05-10T02:56:11;11.50;;;10.38;;
9413;SDS011;4746;35.664;139.738;2023-05-10T02:59:06;13.10;;;10.20;;
9413;SDS011;4746;35.664;139.738;2023-05-10T03:01:34;11.10;;;10.02;;
9413;SDS011;4746;35.664;139.738;2023-05-10T03:04:01;11.48;;;9.45;;
9413;SDS011;4746;35.664;139.738;2023-05-10T03:06:29;10.27;;;9.27;;
9413;SDS011;4746;35.664;139.738;2023-05-10T03:08:56;10.20;;;9.23;;
9413;SDS011;4746;35.664;139.738;2023-05-10T03:11:43;11.52;;;9.32;;
9413;SDS011;4746;35.664;139.738;2023-05-10T03:14:49;11.23;;;10.02;;
9413;SDS011;4746;35.664;139.738;2023-05-10T03:18:22;11.40;;;9.07;;
9413;SDS011;4746;35.664;139.738;2023-05-10T03:20:41;10.55;;;9.48;;
9413;SDS011;4746;35.664;139.738;2023-05-10T03:26:07;9.43;;;8.65;;
9413;SDS011;4746;35.664;139.738;2023-05-10T03:28:43;9.13;;;8.18;;
9413;SDS011;4746;35.664;139.738;2023-05-10T03:31:13;9.85;;;8.77;;
9413;SDS011;4746;35.664;139.738;2023-05-10T03:33:48;9.65;;;8.70;;
9413;SDS011;4746;35.664;139.738;2023-05-10T03:36:18;9.68;;;8.65;;
9413;SDS011;4746;35.664;139.738;2023-05-10T03:38:46;10.07;;;9.07;;
9413;SDS011;4746;35.664;139.738;2023-05-10T03:41:13;9.57;;;8.63;;
9413;SDS011;4746;35.664;139.738;2023-05-10T03:43:41;9.52;;;8.63;;
9413;SDS011;4746;35.664;139.738;2023-05-10T03:46:09;9.32;;;8.52;;
9413;SDS011;4746;35.664;139.738;2023-05-10T03:48:36;10.10;;;9.13;;
9413;SDS011;4746;35.664;139.738;2023-05-10T03:51:04;9.95;;;8.95;;
9413;SDS011;4746;35.664;139.738;2023-05-10T03:53:31;10.60;;;9.52;;
9413;SDS011;4746;35.664;139.738;2023-05-10T03:55:59;11.13;;;9.15;;
9413;SDS011;4746;35.664;139.738;2023-05-10T03:58:26;10.60;;;9.52;;
9413;SDS011;4746;35.664;139.738;2023-05-10T04:00:54;9.68;;;8.82;;
9413;SDS011;4746;35.664;139.738;2023-05-10T04:03:21;10.05;;;8.88;;
9413;SDS011;4746;35.664;139.738;2023-05-10T04:05:58;9.95;;;8.95;;
9413;SDS011;4746;35.664;139.738;2023-05-10T04:08:27;11.38;;;8.55;;
9413;SDS011;4746;35.664;139.738;2023-05-10T04:11:04;9.23;;;8.35;;
9413;SDS011;4746;35.664;139.738;2023-05-10T04:13:33;9.82;;;8.82;;
9413;SDS011;4746;35.664;139.738;2023-05-10T04:16:01;10.82;;;8.30;;
9413;SDS011;4746;35.664;139.738;2023-05-10T04:18:29;10.55;;;9.48;;
9413;SDS011;4746;35.664;139.738;2023-05-10T04:20:57;9.05;;;8.15;;
9413;SDS011;4746;35.664;139.738;2023-05-10T04:23:24;10.90;;;8.32;;
9413;SDS011;4746;35.664;139.738;2023-05-10T04:25:58;9.15;;;8.30;;
9413;SDS011;4746;35.664;139.738;2023-05-10T04:28:27;8.95;;;7.80;;
9413;SDS011;4746;35.664;139.738;2023-05-10T04:31:05;11.60;;;7.80;;
9413;SDS011;4746;35.664;139.738;2023-05-10T04:33:36;12.68;;;8.60;;
9413;SDS011;4746;35.664;139.738;2023-05-10T04:36:03;12.88;;;9.52;;
9413;SDS011;4746;35.664;139.738;2023-05-10T04:38:31;8.25;;;7.50;;
9413;SDS011;4746;35.664;139.738;2023-05-10T04:41:09;9.35;;;8.18;;
9413;SDS011;4746;35.664;139.738;2023-05-10T04:43:37;8.75;;;7.95;;
9413;SDS011;4746;35.664;139.738;2023-05-10T04:46:05;9.10;;;8.20;;
9413;SDS011;4746;35.664;139.738;2023-05-10T04:48:33;11.30;;;8.23;;
9413;SDS011;4746;35.664;139.738;2023-05-10T04:51:01;10.73;;;7.60;;
9413;SDS011;4746;35.664;139.738;2023-05-10T04:53:30;8.00;;;7.20;;
9413;SDS011;4746;35.664;139.738;2023-05-10T04:55:59;8.27;;;7.50;;
9413;SDS011;4746;35.664;139.738;2023-05-10T04:58:31;11.95;;;7.57;;
9413;SDS011;4746;35.664;139.738;2023-05-10T05:01:07;9.38;;;7.70;;
9413;SDS011;4746;35.664;139.738;2023-05-10T05:03:36;9.52;;;7.60;;
9413;SDS011;4746;35.664;139.738;2023-05-10T05:06:04;11.07;;;7.97;;
9413;SDS011;4746;35.664;139.738;2023-05-10T05:08:31;9.98;;;7.78;;
9413;SDS011;4746;35.664;139.738;2023-05-10T05:10:59;7.57;;;6.53;;
9413;SDS011;4746;35.664;139.738;2023-05-10T05:13:26;9.60;;;6.90;;
9413;SDS011;4746;35.664;139.738;2023-05-10T05:15:54;7.72;;;6.72;;
9413;SDS011;4746;35.664;139.738;2023-05-10T05:18:21;10.02;;;7.32;;
9413;SDS011;4746;35.664;139.738;2023-05-10T05:20:49;6.50;;;5.95;;
9413;SDS011;4746;35.664;139.738;2023-05-10T05:23:16;9.02;;;7.30;;
9413;SDS011;4746;35.664;139.738;2023-05-10T05:25:46;7.65;;;6.55;;
9413;SDS011;4746;35.664;139.738;2023-05-10T05:28:13;7.82;;;6.45;;
9413;SDS011;4746;35.664;139.738;2023-05-10T05:30:41;6.32;;;5.50;;
9413;SDS011;4746;35.664;139.738;2023-05-10T05:33:08;11.27;;;6.53;;
9413;SDS011;4746;35.664;139.738;2023-05-10T05:35:36;7.22;;;6.10;;
9413;SDS011;4746;35.664;139.738;2023-05-10T05:38:03;11.00;;;6.28;;
9413;SDS011;4746;35.664;139.738;2023-05-10T05:40:31;8.10;;;6.07;;
9413;SDS011;4746;35.664;139.738;2023-05-10T05:42:59;9.18;;;6.15;;
9413;SDS011;4746;35.664;139.738;2023-05-10T05:45:26;7.50;;;5.65;;
9413;SDS011;4746;35.664;139.738;2023-05-10T05:47:54;8.35;;;5.50;;
9413;SDS011;4746;35.664;139.738;2023-05-10T05:50:21;8.07;;;5.78;;
9413;SDS011;4746;35.664;139.738;2023-05-10T05:52:49;7.82;;;5.85;;
9413;SDS011;4746;35.664;139.738;2023-05-10T05:55:16;7.72;;;6.07;;
9413;SDS011;4746;35.664;139.738;2023-05-10T05:57:44;6.50;;;5.88;;
9413;SDS011;4746;35.664;139.738;2023-05-10T06:00:11;8.82;;;6.10;;
9413;SDS011;4746;35.664;139.738;2023-05-10T06:02:39;6.55;;;5.60;;
9413;SDS011;4746;35.664;139.738;2023-05-10T06:05:08;6.85;;;5.32;;
9413;SDS011;4746;35.664;139.738;2023-05-10T06:07:36;6.80;;;5.63;;
9413;SDS011;4746;35.664;139.738;2023-05-10T06:10:03;6.20;;;5.60;;
9413;SDS011;4746;35.664;139.738;2023-05-10T06:12:32;6.55;;;5.40;;
9413;SDS011;4746;35.664;139.738;2023-05-10T06:14:59;8.07;;;5.85;;
9413;SDS011;4746;35.664;139.738;2023-05-10T06:17:27;5.88;;;5.28;;
9413;SDS011;4746;35.664;139.738;2023-05-10T06:19:55;7.28;;;5.88;;
9413;SDS011;4746;35.664;139.738;2023-05-10T06:22:23;7.50;;;5.75;;
9413;SDS011;4746;35.664;139.738;2023-05-10T06:24:50;6.45;;;5.82;;
9413;SDS011;4746;35.664;139.738;2023-05-10T06:27:18;6.15;;;5.63;;
9413;SDS011;4746;35.664;139.738;2023-05-10T06:29:45;6.63;;;6.00;;
9413;SDS011;4746;35.664;139.738;2023-05-10T06:32:13;5.75;;;5.20;;
9413;SDS011;4746;35.664;139.738;2023-05-10T06:34:40;7.25;;;5.63;;
9413;SDS011;4746;35.664;139.738;2023-05-10T06:37:09;8.73;;;6.30;;
9413;SDS011;4746;35.664;139.738;2023-05-10T06:39:36;6.47;;;5.32;;
9413;SDS011;4746;35.664;139.738;2023-05-10T06:42:04;7.75;;;6.20;;
9413;SDS011;4746;35.664;139.738;2023-05-10T06:44:31;8.35;;;5.97;;
9413;SDS011;4746;35.664;139.738;2023-05-10T06:46:59;8.07;;;6.20;;
9413;SDS011;4746;35.664;139.738;2023-05-10T06:49:26;6.93;;;6.20;;
9413;SDS011;4746;35.664;139.738;2023-05-10T06:51:55;9.63;;;5.60;;
9413;SDS011;4746;35.664;139.738;2023-05-10T06:54:24;6.55;;;5.93;;
9413;SDS011;4746;35.664;139.738;2023-05-10T06:56:52;7.90;;;6.47;;
9413;SDS011;4746;35.664;139.738;2023-05-10T06:59:20;8.23;;;6.65;;
9413;SDS011;4746;35.664;139.738;2023-05-10T07:01:48;9.05;;;7.05;;
9413;SDS011;4746;35.664;139.738;2023-05-10T07:04:15;10.88;;;7.25;;
9413;SDS011;4746;35.664;139.738;2023-05-10T07:06:43;6.45;;;5.85;;
9413;SDS011;4746;35.664;139.738;2023-05-10T07:09:11;7.35;;;6.60;;
9413;SDS011;4746;35.664;139.738;2023-05-10T07:11:39;8.90;;;7.13;;
9413;SDS011;4746;35.664;139.738;2023-05-10T07:14:06;9.27;;;6.05;;
9413;SDS011;4746;35.664;139.738;2023-05-10T07:16:34;9.85;;;6.78;;
9413;SDS011;4746;35.664;139.738;2023-05-10T07:19:01;9.18;;;7.10;;
9413;SDS011;4746;35.664;139.738;2023-05-10T07:21:30;9.75;;;6.85;;
9413;SDS011;4746;35.664;139.738;2023-05-10T07:23:58;7.30;;;6.60;;
9413;SDS011;4746;35.664;139.738;2023-05-10T07:26:26;10.85;;;7.97;;
9413;SDS011;4746;35.664;139.738;2023-05-10T07:28:54;8.15;;;7.18;;
9413;SDS011;4746;35.664;139.738;2023-05-10T07:31:21;11.57;;;8.88;;
9413;SDS011;4746;35.664;139.738;2023-05-10T07:33:49;10.52;;;8.38;;
9413;SDS011;4746;35.664;139.738;2023-05-10T07:36:17;8.68;;;7.78;;
9413;SDS011;4746;35.664;139.738;2023-05-10T07:38:44;9.35;;;8.45;;
9413;SDS011;4746;35.664;139.738;2023-05-10T07:41:11;10.77;;;8.77;;
9413;SDS011;4746;35.664;139.738;2023-05-10T07:43:39;12.32;;;9.45;;
9413;SDS011;4746;35.664;139.738;2023-05-10T07:46:06;11.60;;;9.75;;
9413;SDS011;4746;35.664;139.738;2023-05-10T07:48:36;10.52;;;8.25;;
9413;SDS011;4746;35.664;139.738;2023-05-10T07:51:03;11.80;;;8.73;;
9413;SDS011;4746;35.664;139.738;2023-05-10T07:53:32;11.10;;;8.65;;
9413;SDS011;4746;35.664;139.738;2023-05-10T07:56:19;13.25;;;9.65;;
9413;SDS011;4746;35.664;139.738;2023-05-10T07:58:48;11.20;;;9.82;;
9413;SDS011;4746;35.664;139.738;2023-05-10T08:01:15;11.43;;;10.27;;
9413;SDS011;4746;35.664;139.738;2023-05-10T08:03:43;14.68;;;11.05;;
9413;SDS011;4746;35.664;139.738;2023-05-10T08:06:11;14.95;;;11.18;;
9413;SDS011;4746;35.664;139.738;2023-05-10T08:08:39;10.23;;;8.82;;
9413;SDS011;4746;35.664;139.738;2023-05-10T08:11:06;9.43;;;8.40;;
9413;SDS011;4746;35.664;139.738;2023-05-10T08:13:35;11.20;;;8.52;;
9413;SDS011;4746;35.664;139.738;2023-05-10T08:16:03;9.20;;;8.32;;
9413;SDS011;4746;35.664;139.738;2023-05-10T08:18:30;10.07;;;8.10;;
9413;SDS011;4746;35.664;139.738;2023-05-10T08:20:58;10.98;;;8.48;;
9413;SDS011;4746;35.664;139.738;2023-05-10T08:23:25;8.25;;;7.53;;
9413;SDS011;4746;35.664;139.738;2023-05-10T08:25:53;10.88;;;7.95;;
9413;SDS011;4746;35.664;139.738;2023-05-10T08:28:20;10.38;;;9.45;;
9413;SDS011;4746;35.664;139.738;2023-05-10T08:30:49;10.25;;;8.80;;
9413;SDS011;4746;35.664;139.738;2023-05-10T08:33:17;9.55;;;8.73;;
9413;SDS011;4746;35.664;139.738;2023-05-10T08:35:45;8.98;;;8.18;;
9413;SDS011;4746;35.664;139.738;2023-05-10T08:38:13;10.13;;;7.95;;
9413;SDS011;4746;35.664;139.738;2023-05-10T08:40:41;9.93;;;8.55;;
9413;SDS011;4746;35.664;139.738;2023-05-10T08:43:12;15.20;;;8.40;;
9413;SDS011;4746;35.664;139.738;2023-05-10T08:45:43;9.00;;;8.30;;
9413;SDS011;4746;35.664;139.738;2023-05-10T08:48:12;9.68;;;8.77;;
9413;SDS011;4746;35.664;139.738;2023-05-10T08:50:41;9.98;;;8.43;;
9413;SDS011;4746;35.664;139.738;2023-05-10T08:53:13;9.55;;;8.55;;
9413;SDS011;4746;35.664;139.738;2023-05-10T08:55:43;9.05;;;8.13;;
9413;SDS011;4746;35.664;139.738;2023-05-10T08:58:10;9.25;;;8.45;;
9413;SDS011;4746;35.664;139.738;2023-05-10T09:00:38;9.48;;;8.48;;
9413;SDS011;4746;35.664;139.738;2023-05-10T09:03:06;10.30;;;9.40;;
9413;SDS011;4746;35.664;139.738;2023-05-10T09:05:35;10.18;;;9.07;;
9413;SDS011;4746;35.664;139.738;2023-05-10T09:08:05;11.10;;;9.55;;
9413;SDS011;4746;35.664;139.738;2023-05-10T09:10:35;9.77;;;8.98;;
9413;SDS011;4746;35.664;139.738;2023-05-10T09:13:05;10.80;;;8.77;;
9413;SDS011;4746;35.664;139.738;2023-05-10T09:15:37;10.10;;;9.20;;
9413;SDS011;4746;35.664;139.738;2023-05-10T09:18:05;9.95;;;8.98;;
9413;SDS011;4746;35.664;139.738;2023-05-10T09:20:32;10.60;;;9.68;;
9413;SDS011;4746;35.664;139.738;2023-05-10T09:23:00;10.43;;;9.35;;
9413;SDS011;4746;35.664;139.738;2023-05-10T09:25:27;9.45;;;8.50;;
9413;SDS011;4746;35.664;139.738;2023-05-10T09:27:55;10.35;;;9.25;;
9413;SDS011;4746;35.664;139.738;2023-05-10T09:30:23;10.73;;;9.63;;
9413;SDS011;4746;35.664;139.738;2023-05-10T09:32:57;9.48;;;8.57;;
9413;SDS011;4746;35.664;139.738;2023-05-10T09:35:27;13.52;;;10.95;;
9413;SDS011;4746;35.664;139.738;2023-05-10T09:37:58;12.35;;;10.43;;
9413;SDS011;4746;35.664;139.738;2023-05-10T09:40:30;13.55;;;12.23;;
9413;SDS011;4746;35.664;139.738;2023-05-10T09:42:59;13.25;;;11.88;;
9413;SDS011;4746;35.664;139.738;2023-05-10T09:45:30;13.68;;;11.43;;
9413;SDS011;4746;35.664;139.738;2023-05-10T09:48:00;13.38;;;11.98;;
9413;SDS011;4746;35.664;139.738;2023-05-10T09:50:29;12.43;;;9.05;;
9413;SDS011;4746;35.664;139.738;2023-05-10T09:52:58;9.27;;;8.27;;
9413;SDS011;4746;35.664;139.738;2023-05-10T09:58:11;8.77;;;7.88;;
9413;SDS011;4746;35.664;139.738;2023-05-10T10:00:41;8.68;;;7.97;;
9413;SDS011;4746;35.664;139.738;2023-05-10T10:03:20;9.20;;;8.07;;
9413;SDS011;4746;35.664;139.738;2023-05-10T10:05:48;9.10;;;8.10;;
9413;SDS011;4746;35.664;139.738;2023-05-10T10:08:17;8.77;;;7.97;;
9413;SDS011;4746;35.664;139.738;2023-05-10T10:10:45;10.03;;;9.03;;
9413;SDS011;4746;35.664;139.738;2023-05-10T10:13:14;9.77;;;8.77;;
9413;SDS011;4746;35.664;139.738;2023-05-10T10:15:42;9.27;;;8.47;;
9413;SDS011;4746;35.664;139.738;2023-05-10T10:18:16;9.35;;;8.02;;
9413;SDS011;4746;35.664;139.738;2023-05-10T10:20:49;9.13;;;8.43;;
9413;SDS011;4746;35.664;139.738;2023-05-10T10:23:17;9.63;;;8.73;;
9413;SDS011;4746;35.664;139.738;2023-05-10T10:25:44;9.10;;;8.17;;
9413;SDS011;4746;35.664;139.738;2023-05-10T10:28:16;11.93;;;8.10;;
9413;SDS011;4746;35.664;139.738;2023-05-10T10:30:55;8.27;;;7.57;;
9413;SDS011;4746;35.664;139.738;2023-05-10T10:36:22;11.97;;;8.10;;
9413;SDS011;4746;35.664;139.738;2023-05-10T10:38:56;9.00;;;8.17;;
9413;SDS011;4746;35.664;139.738;2023-05-10T10:41:34;11.80;;;9.67;;
9413;SDS011;4746;35.664;139.738;2023-05-10T10:44:22;11.37;;;9.20;;
9413;SDS011;4746;35.664;139.738;2023-05-10T10:47:07;10.23;;;9.30;;
9413;SDS011;4746;35.664;139.738;2023-05-10T10:49:48;9.77;;;8.97;;
9413;SDS011;4746;35.664;139.738;2023-05-10T10:57:52;11.40;;;9.30;;
9413;SDS011;4746;35.664;139.738;2023-05-10T11:00:30;9.77;;;8.47;;
9413;SDS011;4746;35.664;139.738;2023-05-10T11:03:12;9.50;;;8.57;;
9413;SDS011;4746;35.664;139.738;2023-05-10T11:08:41;10.80;;;9.40;;
9413;SDS011;4746;35.664;139.738;2023-05-10T11:11:09;9.23;;;8.27;;
9413;SDS011;4746;35.664;139.738;2023-05-10T11:13:45;9.13;;;8.27;;
9413;SDS011;4746;35.664;139.738;2023-05-10T11:16:21;8.90;;;7.63;;
9413;SDS011;4746;35.664;139.738;2023-05-10T11:19:10;9.10;;;8.23;;
9413;SDS011;4746;35.664;139.738;2023-05-10T11:21:47;10.87;;;9.77;;
9413;SDS011;4746;35.664;139.738;2023-05-10T11:24:55;11.90;;;9.73;;
9413;SDS011;4746;35.664;139.738;2023-05-10T11:27:24;9.53;;;8.73;;
9413;SDS011;4746;35.664;139.738;2023-05-10T11:29:52;9.53;;;8.70;;
9413;SDS011;4746;35.664;139.738;2023-05-10T11:32:19;9.23;;;8.30;;
9413;SDS011;4746;35.664;139.738;2023-05-10T11:34:48;10.20;;;8.43;;
9413;SDS011;4746;35.664;139.738;2023-05-10T11:37:15;10.47;;;8.93;;
9413;SDS011;4746;35.664;139.738;2023-05-10T11:39:45;9.20;;;8.40;;
9413;SDS011;4746;35.664;139.738;2023-05-10T11:42:13;10.63;;;9.33;;
9413;SDS011;4746;35.664;139.738;2023-05-10T11:44:40;11.93;;;8.60;;
9413;SDS011;4746;35.664;139.738;2023-05-10T11:47:09;10.23;;;9.00;;
9413;SDS011;4746;35.664;139.738;2023-05-10T11:49:39;10.13;;;9.13;;
9413;SDS011;4746;35.664;139.738;2023-05-10T11:52:11;10.77;;;9.53;;
9413;SDS011;4746;35.664;139.738;2023-05-10T11:54:59;10.33;;;8.07;;
9413;SDS011;4746;35.664;139.738;2023-05-10T11:57:26;11.30;;;8.97;;
9413;SDS011;4746;35.664;139.738;2023-05-10T11:59:58;13.10;;;10.00;;
9413;SDS011;4746;35.664;139.738;2023-05-10T12:02:26;11.10;;;9.90;;
9413;SDS011;4746;35.664;139.738;2023-05-10T12:04:55;12.47;;;9.63;;
9413;SDS011;4746;35.664;139.738;2023-05-10T12:07:23;13.03;;;9.57;;
9413;SDS011;4746;35.664;139.738;2023-05-10T12:12:45;10.77;;;9.77;;
9413;SDS011;4746;35.664;139.738;2023-05-10T12:15:17;13.67;;;10.37;;
9413;SDS011;4746;35.664;139.738;2023-05-10T12:17:50;11.87;;;10.57;;
9413;SDS011;4746;35.664;139.738;2023-05-10T12:20:21;13.43;;;11.30;;
9413;SDS011;4746;35.664;139.738;2023-05-10T12:22:54;14.90;;;11.30;;
9413;SDS011;4746;35.664;139.738;2023-05-10T12:25:24;14.97;;;12.57;;
9413;SDS011;4746;35.664;139.738;2023-05-10T12:28:02;13.07;;;11.70;;
9413;SDS011;4746;35.664;139.738;2023-05-10T12:30:34;15.20;;;11.97;;
9413;SDS011;4746;35.664;139.738;2023-05-10T12:33:10;17.93;;;12.10;;
9413;SDS011;4746;35.664;139.738;2023-05-10T12:35:49;14.97;;;12.63;;
9413;SDS011;4746;35.664;139.738;2023-05-10T12:38:38;18.63;;;12.67;;
9413;SDS011;4746;35.664;139.738;2023-05-10T12:41:17;17.63;;;12.43;;
9413;SDS011;4746;35.664;139.738;2023-05-10T12:43:45;15.80;;;12.13;;
9413;SDS011;4746;35.664;139.738;2023-05-10T12:46:14;21.03;;;12.97;;
9413;SDS011;4746;35.664;139.738;2023-05-10T12:48:44;15.30;;;12.53;;
9413;SDS011;4746;35.664;139.738;2023-05-10T12:51:15;16.17;;;13.67;;
9413;SDS011;4746;35.664;139.738;2023-05-10T12:53:44;19.03;;;14.30;;
9413;SDS011;4746;35.664;139.738;2023-05-10T12:56:13;16.37;;;13.77;;
9413;SDS011;4746;35.664;139.738;2023-05-10T12:58:40;22.70;;;14.97;;
9413;SDS011;4746;35.664;139.738;2023-05-10T13:01:13;17.57;;;14.83;;
9413;SDS011;4746;35.664;139.738;2023-05-10T13:03:42;17.70;;;14.43;;
9413;SDS011;4746;35.664;139.738;2023-05-10T13:06:10;21.77;;;13.60;;
9413;SDS011;4746;35.664;139.738;2023-05-10T13:08:40;20.40;;;14.40;;
9413;SDS011;4746;35.664;139.738;2023-05-10T13:11:07;16.67;;;14.43;;
9413;SDS011;4746;35.664;139.738;2023-05-10T13:13:35;18.90;;;14.83;;
9413;SDS011;4746;35.664;139.738;2023-05-10T13:16:02;17.87;;;14.67;;
9413;SDS011;4746;35.664;139.738;2023-05-10T13:18:38;16.57;;;14.57;;
9413;SDS011;4746;35.664;139.738;2023-05-10T13:21:06;16.63;;;14.13;;
9413;SDS011;4746;35.664;139.738;2023-05-10T13:23:34;17.13;;;14.57;;
9413;SDS011;4746;35.664;139.738;2023-05-10T13:26:01;15.17;;;13.53;;
9413;SDS011;4746;35.664;139.738;2023-05-10T13:28:30;13.38;;;11.98;;
9413;SDS011;4746;35.664;139.738;2023-05-10T13:30:58;10.83;;;9.67;;
9413;SDS011;4746;35.664;139.738;2023-05-10T13:33:27;12.20;;;9.10;;
9413;SDS011;4746;35.664;139.738;2023-05-10T13:35:55;9.90;;;8.90;;
9413;SDS011;4746;35.664;139.738;2023-05-10T13:38:23;10.03;;;8.87;;
9413;SDS011;4746;35.664;139.738;2023-05-10T13:40:51;8.70;;;7.90;;
9413;SDS011;4746;35.664;139.738;2023-05-10T13:43:19;10.33;;;8.50;;
9413;SDS011;4746;35.664;139.738;2023-05-10T13:45:47;11.60;;;8.63;;
9413;SDS011;4746;35.664;139.738;2023-05-10T13:48:15;15.90;;;8.77;;
9413;SDS011;4746;35.664;139.738;2023-05-10T13:50:43;11.20;;;8.10;;
9413;SDS011;4746;35.664;139.738;2023-05-10T13:53:11;9.60;;;7.70;;
9413;SDS011;4746;35.664;139.738;2023-05-10T13:55:39;8.67;;;7.87;;
9413;SDS011;4746;35.664;139.738;2023-05-10T13:58:08;9.27;;;8.37;;
9413;SDS011;4746;35.664;139.738;2023-05-10T14:00:36;10.47;;;8.70;;
9413;SDS011;4746;35.664;139.738;2023-05-10T14:03:04;10.37;;;8.70;;
9413;SDS011;4746;35.664;139.738;2023-05-10T14:05:36;10.10;;;9.10;;
9413;SDS011;4746;35.664;139.738;2023-05-10T14:08:04;10.07;;;9.10;;
9413;SDS011;4746;35.664;139.738;2023-05-10T14:10:34;11.53;;;10.40;;
9413;SDS011;4746;35.664;139.738;2023-05-10T14:13:03;10.53;;;9.53;;
9413;SDS011;4746;35.664;139.738;2023-05-10T14:15:31;11.70;;;10.60;;
9413;SDS011;4746;35.664;139.738;2023-05-10T14:18:03;12.37;;;9.40;;
9413;SDS011;4746;35.664;139.738;2023-05-10T14:20:32;12.00;;;10.13;;
9413;SDS011;4746;35.664;139.738;2023-05-10T14:23:00;11.10;;;10.10;;
9413;SDS011;4746;35.664;139.738;2023-05-10T14:25:28;14.13;;;10.13;;
9413;SDS011;4746;35.664;139.738;2023-05-10T14:27:56;10.90;;;9.80;;
9413;SDS011;4746;35.664;139.738;2023-05-10T14:30:24;14.20;;;10.43;;
9413;SDS011;4746;35.664;139.738;2023-05-10T14:32:52;12.43;;;9.53;;
9413;SDS011;4746;35.664;139.738;2023-05-10T14:35:20;15.33;;;9.87;;
9413;SDS011;4746;35.664;139.738;2023-05-10T14:37:48;11.17;;;9.37;;
9413;SDS011;4746;35.664;139.738;2023-05-10T14:40:16;9.37;;;8.47;;
9413;SDS011;4746;35.664;139.738;2023-05-10T14:42:45;11.10;;;9.13;;
9413;SDS011;4746;35.664;139.738;2023-05-10T14:45:13;10.00;;;8.70;;
9413;SDS011;4746;35.664;139.738;2023-05-10T14:47:42;9.03;;;8.13;;
9413;SDS011;4746;35.664;139.738;2023-05-10T14:50:11;9.87;;;8.90;;
9413;SDS011;4746;35.664;139.738;2023-05-10T14:52:39;10.03;;;9.03;;
9413;SDS011;4746;35.664;139.738;2023-05-10T14:55:07;10.37;;;8.57;;
9413;SDS011;4746;35.664;139.738;2023-05-10T14:57:36;11.10;;;9.03;;
9413;SDS011;4746;35.664;139.738;2023-05-10T15:00:04;8.53;;;7.50;;
9413;SDS011;4746;35.664;139.738;2023-05-10T15:02:33;9.97;;;7.97;;
9413;SDS011;4746;35.664;139.738;2023-05-10T15:05:01;17.97;;;9.23;;
9413;SDS011;4746;35.664;139.738;2023-05-10T15:07:30;13.33;;;9.77;;
9413;SDS011;4746;35.664;139.738;2023-05-10T15:09:57;11.87;;;8.90;;
9413;SDS011;4746;35.664;139.738;2023-05-10T15:12:25;10.00;;;8.33;;
9413;SDS011;4746;35.664;139.738;2023-05-10T15:14:54;11.50;;;8.60;;
9413;SDS011;4746;35.664;139.738;2023-05-10T15:17:21;11.13;;;8.57;;
9413;SDS011;4746;35.664;139.738;2023-05-10T15:19:49;8.67;;;7.77;;
9413;SDS011;4746;35.664;139.738;2023-05-10T15:22:17;9.87;;;8.20;;
9413;SDS011;4746;35.664;139.738;2023-05-10T15:24:45;10.33;;;8.37;;